logo
Search for airport 
image banner adimage banner adimage banner ad
image banner ad

SCRT - El Almendro

Located in Retiro, Chile

ICAO - SCRT, IATA -

Data provided by Airmate  

General information

Coordinates: S35°57'38" W71°47'34"
Elevation is 486 feet MSL.
Magnetic variation is 4° East
View others Airports in Maule

Operational data

Special qualification required
Current time UTC:
Current local time:
Weather at : SCCH - General Bernardo O'higgins ( 72 km )
METAR: SCCH 130300Z AUTO 08003KT 0900 R22/0900VP2000D FZFG VV003 M02/M02 Q1022
View NOTAMs / SUP AIP / TFR affecting this airport [VIEW]
Communications frequencies: [VIEW]

Runways:

RWY identifierQFULength (ft)Width (ft)SurfaceLDA (ft)
18186°275445DIRT
36275445DIRT

Airport contact information

Address: Retiro Chile

Satellite view of SCRT